Time;durP1;ratioP1;P1;durP2;ratioP2;P2;SDS_P1;SDS_P2;PMS_P1;PMS_P2;Temp;Humidity;BMP_temperature;BMP_pressure;BME280_temperature;BME280_humidity;BME280_pressure;Samples;Min_cycle;Max_cycle;Signal;HPM_P1;HPM_P2
2021/10/03 00:01:32;;;;;;;1.23;0.75;;;16.00;89.60;;;;;;5067787;28;20020;-78
2021/10/03 00:04:01;;;;;;;4.68;0.70;;;16.10;89.70;;;;;;5076957;28;20474;-77
2021/10/03 00:06:28;;;;;;;1.60;0.90;;;16.00;89.40;;;;;;5076975;28;20537;-78
2021/10/03 00:08:54;;;;;;;6.30;0.63;;;16.00;89.60;;;;;;5058564;28;20089;-78
2021/10/03 00:11:21;;;;;;;2.45;0.85;;;16.00;89.30;;;;;;5056851;28;20029;-78
2021/10/03 00:13:47;;;;;;;1.23;0.80;;;15.90;88.50;;;;;;5056521;28;20056;-77
2021/10/03 00:16:13;;;;;;;4.80;0.80;;;15.90;89.60;;;;;;5056472;28;20041;-78
2021/10/03 00:18:40;;;;;;;1.98;0.63;;;15.90;89.70;;;;;;5056324;28;20061;-78
2021/10/03 00:21:10;;;;;;;2.15;0.50;;;15.90;89.60;;;;;;5056503;28;20078;-78
2021/10/03 00:23:36;;;;;;;1.02;0.60;;;15.90;89.70;;;;;;5056597;28;20097;-78
2021/10/03 00:26:03;;;;;;;1.27;0.60;;;15.80;89.30;;;;;;5057119;28;20045;-79
2021/10/03 00:28:28;;;;;;;1.55;0.60;;;15.80;89.20;;;;;;5062533;28;20052;-78
2021/10/03 00:30:54;;;;;;;3.08;0.88;;;15.80;89.10;;;;;;5056217;28;20032;-78
2021/10/03 00:33:21;;;;;;;2.78;0.70;;;15.80;89.90;;;;;;5056403;28;20107;-78
2021/10/03 00:35:47;;;;;;;3.10;1.05;;;15.80;89.50;;;;;;5056060;28;20025;-78
2021/10/03 00:38:13;;;;;;;1.95;0.90;;;15.80;89.90;;;;;;5056355;28;20036;-78
2021/10/03 00:40:41;;;;;;;1.90;1.02;;;15.80;89.40;;;;;;5055949;28;20037;-78
2021/10/03 00:43:08;;;;;;;4.03;1.00;;;15.70;88.90;;;;;;5056133;28;20017;-78
2021/10/03 00:45:35;;;;;;;3.30;1.20;;;15.70;89.50;;;;;;5055855;28;20506;-78
2021/10/03 00:48:01;;;;;;;8.02;1.38;;;15.80;89.80;;;;;;5056110;28;20021;-78
2021/10/03 00:50:28;;;;;;;2.63;1.35;;;15.80;90.00;;;;;;5038020;28;20048;-79
2021/10/03 00:52:54;;;;;;;3.78;1.40;;;15.80;89.90;;;;;;5038128;28;20039;-78
2021/10/03 00:55:21;;;;;;;4.53;1.40;;;15.80;89.40;;;;;;5056102;28;20498;-79
2021/10/03 00:57:51;;;;;;;3.65;1.30;;;15.80;89.90;;;;;;5039417;28;20060;-78
2021/10/03 01:00:40;;;;;;;2.38;1.30;;;15.80;89.40;;;;;;5056062;28;20020;-78
2021/10/03 01:03:07;;;;;;;2.35;1.00;;;15.80;89.50;;;;;;5048526;28;20025;-79
2021/10/03 01:05:34;;;;;;;1.52;0.77;;;15.80;89.90;;;;;;5056202;28;20020;-78
2021/10/03 01:08:00;;;;;;;3.80;0.98;;;15.80;89.50;;;;;;5055692;28;20538;-79
2021/10/03 01:10:27;;;;;;;2.08;0.90;;;15.80;89.70;;;;;;5055658;28;20024;-78
2021/10/03 01:12:58;;;;;;;0.70;0.40;;;15.80;89.60;;;;;;5055318;28;20028;-79
2021/10/03 01:15:25;;;;;;;2.60;0.60;;;15.70;89.30;;;;;;5055930;28;20587;-78
2021/10/03 01:17:54;;;;;;;1.60;0.52;;;15.70;89.20;;;;;;5054941;28;20056;-79
2021/10/03 01:20:20;;;;;;;1.83;0.60;;;15.70;89.10;;;;;;5055454;28;20104;-79
2021/10/03 01:22:46;;;;;;;1.52;0.43;;;15.60;89.00;;;;;;5054190;28;20021;-79
2021/10/03 01:25:12;;;;;;;1.85;0.50;;;15.60;89.10;;;;;;5052984;28;20460;-79
2021/10/03 01:27:38;;;;;;;2.05;0.50;;;15.50;89.40;;;;;;5055375;28;20029;-79
2021/10/03 01:30:06;;;;;;;1.30;0.50;;;15.50;89.30;;;;;;5055371;28;20032;-79
2021/10/03 01:32:32;;;;;;;0.50;0.35;;;15.50;89.00;;;;;;5052677;28;20082;-79
2021/10/03 01:35:19;;;;;;;2.45;0.60;;;15.40;89.00;;;;;;5037467;28;20044;-79
2021/10/03 01:37:45;;;;;;;2.88;0.60;;;15.40;89.60;;;;;;5055240;28;20057;-79
2021/10/03 01:42:58;;;;;;;0.90;0.55;;;15.30;89.00;;;;;;5044784;28;20116;-78
2021/10/03 01:45:25;;;;;;;1.42;0.50;;;15.30;88.50;;;;;;5055298;28;20108;-79
2021/10/03 01:48:13;;;;;;;2.35;0.50;;;15.30;89.60;;;;;;5054957;28;20816;-79
2021/10/03 01:50:48;;;;;;;2.25;0.60;;;15.30;89.50;;;;;;5037444;28;20025;-79
2021/10/03 01:53:37;;;;;;;1.90;0.60;;;15.30;89.60;;;;;;5055250;28;20032;-79
2021/10/03 01:56:05;;;;;;;1.17;0.50;;;15.30;89.40;;;;;;5055171;28;20469;-79
2021/10/03 01:58:36;;;;;;;2.17;0.50;;;15.30;89.50;;;;;;5066384;28;20397;-79
2021/10/03 02:01:06;;;;;;;0.80;0.45;;;15.30;89.50;;;;;;5054927;28;20490;-79
2021/10/03 02:03:36;;;;;;;2.13;1.08;;;15.30;89.30;;;;;;5054693;28;20029;-79
2021/10/03 02:06:02;;;;;;;;;;;15.20;89.10;;;;;;5055501;28;20032;-79
2021/10/03 02:08:27;;;;;;;2.28;0.60;;;15.20;89.40;;;;;;5055163;28;19905;-79
2021/10/03 02:10:53;;;;;;;1.33;0.75;;;15.20;89.40;;;;;;5055055;28;20021;-79
2021/10/03 02:13:22;;;;;;;0.70;0.40;;;15.20;89.70;;;;;;5054699;28;20029;-79
2021/10/03 02:15:48;;;;;;;0.85;0.57;;;15.20;89.40;;;;;;5054782;28;20036;-79
2021/10/03 02:18:17;;;;;;;1.10;0.50;;;15.10;89.20;;;;;;5054530;28;20067;-78
2021/10/03 02:20:44;;;;;;;2.35;0.68;;;15.10;89.40;;;;;;5054892;28;20112;-78
2021/10/03 02:23:12;;;;;;;0.90;0.50;;;15.10;89.30;;;;;;5036671;28;20032;-79
2021/10/03 02:28:25;;;;;;;0.93;0.50;;;15.10;89.00;;;;;;5055115;28;20439;-79
2021/10/03 02:31:00;;;;;;;2.00;0.47;;;15.00;89.20;;;;;;5054721;28;20032;-78
2021/10/03 02:33:26;;;;;;;0.57;0.38;;;15.00;89.20;;;;;;5052172;28;20029;-79
2021/10/03 02:35:53;;;;;;;1.95;0.75;;;15.00;89.30;;;;;;5054807;28;20379;-79
2021/10/03 02:38:21;;;;;;;0.63;0.40;;;15.00;89.40;;;;;;5054770;28;20044;-79
2021/10/03 02:40:49;;;;;;;0.77;0.75;;;15.00;89.70;;;;;;5054649;28;20150;-78
2021/10/03 02:43:18;;;;;;;1.15;0.80;;;15.00;88.80;;;;;;5054347;28;20044;-78
2021/10/03 02:45:50;;;;;;;1.10;0.55;;;15.00;88.80;;;;;;5054558;28;20104;-78
2021/10/03 02:48:18;;;;;;;1.60;0.75;;;14.90;89.60;;;;;;5054573;28;20087;-78
2021/10/03 02:50:45;;;;;;;0.65;0.43;;;15.00;89.30;;;;;;5055530;28;20103;-78
2021/10/03 02:53:11;;;;;;;0.90;0.50;;;15.00;89.70;;;;;;5058076;28;20021;-78
2021/10/03 02:55:38;;;;;;;1.48;0.60;;;14.90;88.80;;;;;;5058240;28;20554;-78
2021/10/03 02:58:05;;;;;;;3.35;0.60;;;14.90;89.30;;;;;;5058104;28;20035;-78
2021/10/03 03:00:35;;;;;;;0.90;0.47;;;14.90;88.90;;;;;;5058081;28;20029;-79
2021/10/03 03:03:00;;;;;;;1.90;0.73;;;14.80;88.10;;;;;;5058106;28;20459;-79
2021/10/03 03:05:26;;;;;;;1.75;0.70;;;14.80;88.70;;;;;;5058171;28;20029;-79
2021/10/03 03:07:52;;;;;;;1.10;0.60;;;14.90;89.50;;;;;;5058105;28;20032;-79
2021/10/03 03:10:18;;;;;;;1.00;0.57;;;14.80;89.20;;;;;;5058077;28;20029;-78
2021/10/03 03:12:43;;;;;;;0.98;0.60;;;14.80;89.10;;;;;;5057882;28;20066;-78
2021/10/03 03:15:10;;;;;;;1.52;0.55;;;14.80;89.20;;;;;;5058058;28;20355;-78
2021/10/03 03:17:38;;;;;;;0.68;0.40;;;14.80;89.20;;;;;;5055204;28;20120;-78
2021/10/03 03:20:06;;;;;;;3.42;0.50;;;14.80;89.30;;;;;;5057840;28;20406;-79
2021/10/03 03:22:31;;;;;;;1.70;0.60;;;14.80;89.50;;;;;;5057561;28;20075;-78
2021/10/03 03:24:57;;;;;;;1.15;0.50;;;14.80;89.40;;;;;;5057499;28;20406;-78
2021/10/03 03:27:23;;;;;;;3.70;0.80;;;14.80;89.40;;;;;;5057578;28;20044;-78
2021/10/03 03:29:49;;;;;;;2.30;0.70;;;14.80;89.40;;;;;;5057576;28;20538;-79
2021/10/03 03:32:15;;;;;;;0.70;0.50;;;14.80;89.20;;;;;;5055938;28;20035;-78
2021/10/03 03:34:41;;;;;;;2.40;0.50;;;14.80;89.10;;;;;;5057399;28;20115;-79
2021/10/03 03:37:07;;;;;;;2.92;0.60;;;14.80;89.10;;;;;;5057510;28;20056;-78
2021/10/03 03:39:32;;;;;;;1.63;0.60;;;14.70;88.60;;;;;;5057612;28;20028;-79
2021/10/03 03:41:58;;;;;;;2.50;0.60;;;14.70;89.70;;;;;;5056886;28;20029;-78
2021/10/03 03:44:24;;;;;;;1.27;0.80;;;14.70;89.30;;;;;;5057301;28;20033;-78
2021/10/03 03:46:50;;;;;;;1.88;0.77;;;14.70;89.20;;;;;;5057037;28;20513;-79
2021/10/03 03:49:15;;;;;;;1.30;0.82;;;14.80;89.70;;;;;;5057278;28;20063;-79
2021/10/03 03:51:47;;;;;;;3.28;0.75;;;14.70;89.20;;;;;;5039487;28;20826;-78
2021/10/03 03:54:12;;;;;;;1.63;0.80;;;14.80;89.60;;;;;;5056902;28;20036;-79
2021/10/03 03:56:38;;;;;;;1.42;0.90;;;14.80;89.10;;;;;;5057113;28;20024;-78
2021/10/03 03:59:04;;;;;;;3.47;0.90;;;14.80;88.90;;;;;;5057075;28;20088;-78
2021/10/03 04:01:30;;;;;;;1.63;0.80;;;14.70;89.50;;;;;;5056440;28;20455;-78
2021/10/03 04:03:55;;;;;;;2.03;0.80;;;14.70;89.10;;;;;;5057019;28;20029;-78
2021/10/03 04:06:21;;;;;;;3.35;1.00;;;14.70;89.40;;;;;;5056714;28;20037;-79
2021/10/03 04:08:54;;;;;;;1.88;1.05;;;14.70;89.00;;;;;;5056950;28;20129;-78
2021/10/03 04:11:20;;;;;;;1.70;0.80;;;14.60;89.00;;;;;;5055334;28;20021;-78
2021/10/03 04:13:45;;;;;;;4.43;1.10;;;14.70;89.60;;;;;;5056612;28;20029;-78
2021/10/03 04:16:11;;;;;;;5.60;1.20;;;14.70;89.60;;;;;;5056501;28;20103;-78
2021/10/03 04:18:37;;;;;;;2.58;1.00;;;14.70;89.60;;;;;;5056396;28;20098;-78
2021/10/03 04:21:03;;;;;;;2.97;1.10;;;14.70;89.20;;;;;;5056557;28;20036;-79
2021/10/03 04:23:30;;;;;;;3.13;1.10;;;14.70;89.30;;;;;;5056689;28;20550;-78
2021/10/03 04:25:56;;;;;;;2.55;1.25;;;14.70;89.60;;;;;;5058518;28;20016;-79
2021/10/03 04:28:25;;;;;;;2.67;1.40;;;14.70;89.50;;;;;;5058678;28;20436;-79
2021/10/03 04:30:52;;;;;;;2.30;1.30;;;14.70;89.50;;;;;;5056321;28;20025;-79
2021/10/03 04:33:17;;;;;;;1.67;1.20;;;14.70;89.60;;;;;;5038599;28;20032;-78
2021/10/03 04:35:43;;;;;;;2.20;1.30;;;14.70;89.30;;;;;;5056168;28;20510;-78
2021/10/03 04:38:09;;;;;;;4.45;1.52;;;14.70;89.60;;;;;;5056245;28;20036;-78
2021/10/03 04:40:34;;;;;;;3.28;1.27;;;14.70;89.50;;;;;;5056103;28;20472;-78
2021/10/03 04:43:03;;;;;;;2.97;1.20;;;14.70;88.40;;;;;;5056213;28;20491;-78
2021/10/03 04:45:28;;;;;;;2.90;1.25;;;14.60;89.20;;;;;;5055920;28;20025;-78
2021/10/03 04:47:54;;;;;;;3.33;1.55;;;14.70;89.20;;;;;;5055850;28;20032;-79
2021/10/03 04:50:20;;;;;;;4.47;1.25;;;14.70;89.70;;;;;;5056045;28;20071;-78
2021/10/03 04:52:46;;;;;;;2.95;1.48;;;14.70;89.80;;;;;;5055792;28;20032;-78
2021/10/03 04:55:12;;;;;;;2.40;1.20;;;14.70;89.10;;;;;;5055988;28;20025;-78
2021/10/03 04:57:38;;;;;;;4.22;1.45;;;14.60;89.70;;;;;;5055942;28;20017;-79
2021/10/03 05:00:06;;;;;;;4.65;1.30;;;14.70;89.70;;;;;;5055892;28;20032;-79
2021/10/03 05:02:32;;;;;;;2.22;1.48;;;14.70;89.80;;;;;;5055385;28;20078;-78
2021/10/03 05:04:58;;;;;;;5.35;1.25;;;14.70;90.10;;;;;;5055510;28;20037;-79
2021/10/03 05:07:24;;;;;;;3.95;1.50;;;14.70;89.60;;;;;;5056104;28;20032;-80
2021/10/03 05:09:50;;;;;;;4.40;1.40;;;14.70;89.70;;;;;;5042078;28;20032;-79
2021/10/03 05:12:16;;;;;;;5.15;1.58;;;14.70;89.50;;;;;;5055582;28;20033;-79
2021/10/03 05:14:42;;;;;;;2.42;1.20;;;14.70;89.80;;;;;;5055113;28;20040;-79
2021/10/03 05:17:10;;;;;;;3.47;1.40;;;14.70;89.70;;;;;;5053030;28;20049;-79
2021/10/03 05:19:36;;;;;;;2.63;1.58;;;14.70;89.30;;;;;;5049710;28;20090;-77
2021/10/03 05:22:03;;;;;;;3.30;1.33;;;14.60;89.50;;;;;;5066047;28;20028;-79
2021/10/03 05:24:29;;;;;;;3.30;1.27;;;14.60;89.20;;;;;;5070547;28;20050;-78
2021/10/03 05:26:55;;;;;;;3.22;1.40;;;14.60;89.60;;;;;;5065941;28;20024;-78
2021/10/03 05:29:21;;;;;;;3.70;1.30;;;14.60;89.80;;;;;;5068007;28;20038;-78
2021/10/03 05:31:47;;;;;;;4.00;1.30;;;14.60;89.70;;;;;;5047556;28;20025;-78
2021/10/03 05:34:12;;;;;;;2.33;1.20;;;14.60;88.80;;;;;;5065680;28;20056;-78
2021/10/03 05:36:38;;;;;;;4.20;1.40;;;14.60;89.50;;;;;;5062483;28;20029;-79
2021/10/03 05:39:04;;;;;;;3.40;1.25;;;14.50;89.20;;;;;;5065403;28;20025;-78
2021/10/03 05:41:30;;;;;;;6.53;1.48;;;14.50;89.60;;;;;;5053698;28;20028;-78
2021/10/03 05:43:56;;;;;;;3.50;1.40;;;14.50;89.60;;;;;;5057751;28;20025;-78
2021/10/03 05:46:23;;;;;;;7.10;1.42;;;14.50;89.60;;;;;;5055341;28;20017;-79
2021/10/03 05:48:48;;;;;;;7.90;1.50;;;14.40;89.30;;;;;;5057735;28;20025;-78
2021/10/03 05:51:14;;;;;;;3.80;1.48;;;14.50;89.90;;;;;;5074124;28;20512;-78
2021/10/03 05:53:40;;;;;;;6.32;1.35;;;14.50;89.30;;;;;;5052940;28;20112;-78
2021/10/03 05:56:06;;;;;;;6.38;1.40;;;14.40;89.60;;;;;;5074198;28;20408;-80
2021/10/03 05:58:33;;;;;;;3.85;1.20;;;14.40;89.10;;;;;;5056015;28;20115;-80
2021/10/03 06:00:59;;;;;;;3.10;1.08;;;14.30;89.10;;;;;;5073723;28;20019;-78
2021/10/03 06:03:25;;;;;;;5.00;1.02;;;14.30;88.60;;;;;;5067522;28;20033;-79
2021/10/03 06:05:50;;;;;;;2.95;0.85;;;14.30;88.50;;;;;;5054763;28;20899;-78
2021/10/03 06:08:19;;;;;;;2.13;0.90;;;14.30;88.20;;;;;;5071006;28;20478;-78
2021/10/03 06:10:45;;;;;;;1.95;0.77;;;14.30;88.90;;;;;;5063101;28;20021;-79
2021/10/03 06:13:12;;;;;;;2.30;0.85;;;14.20;88.40;;;;;;5070955;28;20028;-78
2021/10/03 06:15:44;;;;;;;4.57;1.00;;;14.20;88.60;;;;;;5081503;28;20028;-78
2021/10/03 06:18:11;;;;;;;3.17;0.90;;;14.20;88.50;;;;;;5076812;28;20043;-79
2021/10/03 06:20:37;;;;;;;3.28;0.90;;;14.10;87.70;;;;;;5094649;28;20031;-78
2021/10/03 06:23:02;;;;;;;2.92;0.80;;;14.00;88.50;;;;;;5038941;28;20022;-78
2021/10/03 06:25:31;;;;;;;5.25;0.80;;;14.10;88.50;;;;;;5069377;28;20082;-81
2021/10/03 06:27:56;;;;;;;5.57;1.20;;;14.10;89.00;;;;;;5065475;28;20071;-79
2021/10/03 06:30:23;;;;;;;2.72;1.08;;;14.10;88.90;;;;;;5058510;28;20028;-79
2021/10/03 06:32:48;;;;;;;4.70;1.90;;;14.10;88.90;;;;;;5058140;28;20402;-82
2021/10/03 06:35:14;;;;;;;4.10;1.42;;;14.10;89.00;;;;;;5056859;28;20024;-81
2021/10/03 06:37:40;;;;;;;1.33;0.70;;;14.00;88.80;;;;;;5057364;28;20475;-78
2021/10/03 06:40:06;;;;;;;3.75;0.95;;;14.00;88.90;;;;;;5058248;28;20029;-78
2021/10/03 06:42:32;;;;;;;4.20;0.82;;;14.10;89.10;;;;;;5057681;28;20033;-83
2021/10/03 06:44:58;;;;;;;2.15;0.90;;;14.10;89.40;;;;;;5057770;28;20506;-89
2021/10/03 06:47:24;;;;;;;2.65;1.00;;;14.10;89.30;;;;;;5056690;28;20263;-83
2021/10/03 06:49:49;;;;;;;2.08;0.98;;;14.10;88.80;;;;;;5057915;28;20013;-89
2021/10/03 06:52:15;;;;;;;3.00;1.40;;;14.10;88.20;;;;;;5040077;28;20041;-87
2021/10/03 06:54:41;;;;;;;2.60;1.80;;;14.10;88.80;;;;;;5057734;28;20025;-83
2021/10/03 06:57:06;;;;;;;4.47;2.08;;;14.10;89.10;;;;;;5057623;28;20490;-86
2021/10/03 06:59:33;;;;;;;3.55;1.52;;;14.10;89.00;;;;;;5040080;28;20025;-84
2021/10/03 07:02:14;;;;;;;4.80;2.10;;;14.10;88.70;;;;;;5058991;28;20395;-87
2021/10/03 07:04:40;;;;;;;4.25;1.90;;;14.10;89.10;;;;;;5057345;28;20025;-83
2021/10/03 07:07:06;;;;;;;3.85;2.20;;;14.10;89.10;;;;;;5039385;28;20025;-86
2021/10/03 07:09:31;;;;;;;5.20;1.70;;;14.20;88.90;;;;;;5057888;28;20059;-85
2021/10/03 07:11:57;;;;;;;4.70;1.70;;;14.10;88.40;;;;;;5040170;28;20035;-83
2021/10/03 07:14:29;;;;;;;3.80;1.52;;;14.20;88.60;;;;;;5071678;28;20456;-91
2021/10/03 07:16:54;;;;;;;5.78;1.50;;;14.20;88.60;;;;;;5071935;28;20418;-86
2021/10/03 07:19:20;;;;;;;3.70;1.10;;;14.20;88.90;;;;;;5061088;28;20044;-86
2021/10/03 07:22:02;;;;;;;2.35;1.08;;;14.20;88.30;;;;;;5074702;28;20107;-89
2021/10/03 07:24:36;;;;;;;2.67;1.10;;;14.20;88.30;;;;;;5050717;28;20155;-89
2021/10/03 07:27:03;;;;;;;2.05;0.93;;;14.20;88.60;;;;;;5057713;28;20029;-83
2021/10/03 07:29:29;;;;;;;3.95;1.10;;;14.20;88.30;;;;;;5057686;28;20025;-81
2021/10/03 07:31:54;;;;;;;1.42;0.93;;;14.20;87.80;;;;;;5083717;28;20458;-81
2021/10/03 07:34:20;;;;;;;4.90;0.93;;;14.20;88.20;;;;;;5097266;28;20028;-80
2021/10/03 07:40:17;;;;;;;3.22;0.85;;;14.10;88.40;;;;;;5154463;27;20415;-84
2021/10/03 07:42:44;;;;;;;2.22;1.08;;;13.80;87.20;;;;;;5101387;28;20028;-78
2021/10/03 07:45:10;;;;;;;1.80;0.90;;;13.70;88.20;;;;;;5122444;28;20108;-84
2021/10/03 07:47:36;;;;;;;2.67;1.05;;;13.80;89.00;;;;;;5119594;28;20102;-84
2021/10/03 07:50:02;;;;;;;6.47;1.10;;;13.70;87.30;;;;;;5131883;28;20040;-85
2021/10/03 07:52:28;;;;;;;4.18;0.95;;;13.70;86.10;;;;;;5113144;28;20056;-82
2021/10/03 07:54:54;;;;;;;4.97;1.25;;;13.70;87.50;;;;;;5094701;28;20031;-84
2021/10/03 07:57:20;;;;;;;1.73;0.90;;;13.90;88.00;;;;;;5111133;28;20032;-83
2021/10/03 07:59:51;;;;;;;1.88;0.80;;;14.00;87.80;;;;;;5127049;28;20050;-86
2021/10/03 08:02:17;;;;;;;4.05;1.17;;;14.20;86.90;;;;;;5123990;27;20035;-82
2021/10/03 08:04:43;;;;;;;3.97;1.20;;;14.20;86.10;;;;;;5121381;28;20011;-88
2021/10/03 08:07:08;;;;;;;4.13;1.17;;;14.30;87.90;;;;;;5104681;28;20033;-85
2021/10/03 08:09:34;;;;;;;2.45;0.90;;;14.50;87.30;;;;;;5126377;28;20027;-82
2021/10/03 08:12:00;;;;;;;50.63;27.38;;;14.50;86.40;;;;;;5121388;27;20142;-85
2021/10/03 08:14:26;;;;;;;6.18;3.55;;;14.60;86.60;;;;;;5123646;28;20024;-86
2021/10/03 08:16:52;;;;;;;7.57;2.47;;;14.70;86.20;;;;;;5127000;28;20041;-84
2021/10/03 08:19:18;;;;;;;4.43;2.70;;;14.70;85.90;;;;;;5104955;28;20479;-82
2021/10/03 08:21:43;;;;;;;14.18;7.78;;;14.80;85.70;;;;;;5130030;28;20423;-83
2021/10/03 08:24:12;;;;;;;7.22;3.72;;;14.90;86.50;;;;;;5101381;28;20111;-90
2021/10/03 08:26:38;;;;;;;12.77;7.82;;;15.20;85.30;;;;;;5121503;27;20389;-84
2021/10/03 08:29:04;;;;;;;5.32;2.25;;;15.30;83.60;;;;;;5114940;28;20030;-83
2021/10/03 08:31:29;;;;;;;7.32;2.38;;;15.50;85.50;;;;;;5120763;28;20035;-82
2021/10/03 08:33:55;;;;;;;4.13;1.63;;;15.50;83.30;;;;;;5094818;28;20028;-83
2021/10/03 08:36:21;;;;;;;3.63;1.80;;;15.60;84.00;;;;;;5120890;28;20028;-80
2021/10/03 08:38:47;;;;;;;2.42;1.90;;;15.60;84.00;;;;;;5114951;28;20044;-86
2021/10/03 08:41:12;;;;;;;2.58;0.88;;;15.70;83.80;;;;;;5123857;28;20035;-85
2021/10/03 08:43:38;;;;;;;2.53;1.67;;;15.70;84.10;;;;;;5113754;28;20019;-82
2021/10/03 08:46:06;;;;;;;2.25;1.08;;;15.60;84.70;;;;;;5095308;28;20146;-80
2021/10/03 08:48:32;;;;;;;3.03;1.33;;;15.40;82.70;;;;;;5121358;28;20016;-79
2021/10/03 08:50:59;;;;;;;2.50;0.80;;;15.40;84.00;;;;;;5091597;28;20034;-83
2021/10/03 08:53:25;;;;;;;4.63;1.23;;;15.40;85.00;;;;;;5100021;28;20024;-78
2021/10/03 08:55:51;;;;;;;5.30;1.50;;;15.40;85.30;;;;;;5114431;28;20031;-83
2021/10/03 08:58:16;;;;;;;3.78;2.15;;;15.30;83.90;;;;;;5086208;28;20035;-80
2021/10/03 09:00:47;;;;;;;8.57;3.83;;;15.30;83.70;;;;;;5107871;28;20024;-80
2021/10/03 09:03:14;;;;;;;5.35;1.88;;;15.30;84.20;;;;;;5092839;28;20498;-78
2021/10/03 09:05:54;;;;;;;4.88;2.08;;;15.30;84.10;;;;;;5087579;28;20040;-87
2021/10/03 09:08:25;;;;;;;1.50;1.10;;;15.20;84.70;;;;;;5104107;28;20451;-82
2021/10/03 09:10:57;;;;;;;3.95;1.38;;;15.20;82.00;;;;;;5110093;28;20174;-86
2021/10/03 09:13:32;;;;;;;4.20;1.15;;;15.20;82.40;;;;;;5106505;28;20024;-85
2021/10/03 09:16:18;;;;;;;9.20;1.67;;;15.30;84.70;;;;;;5101752;28;20031;-83
2021/10/03 09:18:50;;;;;;;2.58;1.02;;;15.30;83.70;;;;;;5102424;28;20540;-82
2021/10/03 09:21:39;;;;;;;2.30;1.35;;;15.30;83.40;;;;;;5106971;28;20083;-81
2021/10/03 09:24:12;;;;;;;2.72;1.60;;;15.40;84.50;;;;;;5105079;28;20024;-81
2021/10/03 09:26:51;;;;;;;4.25;1.75;;;15.60;84.10;;;;;;5111544;28;20062;-79
2021/10/03 09:29:32;;;;;;;2.95;1.25;;;15.70;83.40;;;;;;5082731;28;20674;-78
2021/10/03 09:32:18;;;;;;;7.28;2.55;;;15.70;79.00;;;;;;5088217;28;20027;-83
2021/10/03 09:35:10;;;;;;;2.88;0.80;;;15.80;82.50;;;;;;5098015;28;20024;-86
2021/10/03 09:38:40;;;;;;;1.48;0.80;;;15.90;82.00;;;;;;5107439;28;20036;-88
2021/10/03 09:44:26;;;;;;;4.45;1.23;;;15.90;81.90;;;;;;5023392;28;19971;-86
2021/10/03 09:47:15;;;;;;;2.90;1.30;;;16.00;83.50;;;;;;5005973;28;20026;-88
2021/10/03 09:53:22;;;;;;;;;;;;;;;;;;;;;
2021/10/03 09:55:59;;;;;;;3.20;0.90;;;16.00;81.70;;;;;;5019075;28;20037;-88
2021/10/03 10:02:42;;;;;;;3.40;0.93;;;16.00;79.50;;;;;;4924086;29;20039;-87
2021/10/03 10:08:41;;;;;;;2.90;1.02;;;16.20;81.90;;;;;;4920640;29;20189;-87
2021/10/03 10:11:15;;;;;;;6.05;1.30;;;16.30;81.50;;;;;;4945438;28;20050;-87
2021/10/03 10:13:41;;;;;;;3.78;1.20;;;16.40;81.80;;;;;;5061218;28;20107;-85
2021/10/03 10:16:35;;;;;;;7.15;2.03;;;16.50;80.50;;;;;;5061498;28;20047;-89
2021/10/03 10:19:35;;;;;;;4.30;1.15;;;16.70;80.90;;;;;;5064226;28;20024;-77
2021/10/03 10:22:14;;;;;;;1.75;1.08;;;16.70;78.30;;;;;;5057944;28;20447;-79
2021/10/03 10:24:50;;;;;;;3.65;0.90;;;16.80;78.90;;;;;;5066527;28;20032;-81
2021/10/03 10:27:24;;;;;;;3.13;0.90;;;16.80;79.40;;;;;;5068905;28;20035;-78
2021/10/03 10:30:25;;;;;;;3.55;1.30;;;16.80;75.70;;;;;;5055983;28;20475;-79
2021/10/03 10:32:58;;;;;;;2.90;0.80;;;16.80;79.10;;;;;;5031768;28;20056;-84
2021/10/03 10:35:32;;;;;;;2.30;0.93;;;16.80;77.70;;;;;;5063353;28;20098;-81
2021/10/03 10:38:00;;;;;;;1.42;0.70;;;16.80;74.10;;;;;;5054581;28;20017;-85
2021/10/03 10:40:29;;;;;;;2.03;0.88;;;16.80;75.90;;;;;;5094992;28;20044;-85
2021/10/03 10:43:02;;;;;;;6.05;0.98;;;16.90;76.20;;;;;;5095742;28;20032;-86
2021/10/03 10:45:28;;;;;;;4.75;1.00;;;16.90;75.80;;;;;;5096174;28;20024;-79
2021/10/03 10:48:09;;;;;;;4.30;1.13;;;16.90;77.90;;;;;;5096064;28;20039;-79
2021/10/03 10:50:35;;;;;;;1.63;0.70;;;17.00;77.00;;;;;;5095976;28;20367;-81
2021/10/03 10:53:16;;;;;;;2.70;0.80;;;17.10;76.20;;;;;;5077797;28;20031;-80
2021/10/03 10:55:58;;;;;;;2.72;1.30;;;17.00;71.40;;;;;;5098701;28;20027;-79
2021/10/03 10:58:24;;;;;;;3.85;1.40;;;17.10;71.20;;;;;;5116410;28;20036;-83
2021/10/03 11:00:56;;;;;;;1.10;0.70;;;17.20;74.60;;;;;;5116119;28;20043;-81
2021/10/03 11:03:41;;;;;;;2.75;0.57;;;17.30;69.20;;;;;;5116321;28;20038;-81
2021/10/03 11:06:12;;;;;;;2.58;0.50;;;17.20;69.60;;;;;;5093040;28;20032;-85
2021/10/03 11:08:56;;;;;;;;;;;17.20;70.40;;;;;;5096242;28;20027;-78
2021/10/03 11:11:22;;;;;;;2.78;1.20;;;17.30;75.30;;;;;;5095442;28;19914;-80
2021/10/03 11:13:50;;;;;;;2.45;0.75;;;17.40;74.70;;;;;;5106800;28;20046;-81
2021/10/03 11:16:21;;;;;;;3.65;0.70;;;17.40;72.70;;;;;;5116056;28;20059;-79
2021/10/03 11:18:58;;;;;;;2.58;1.33;;;17.50;70.10;;;;;;5104619;28;20107;-90
2021/10/03 11:21:31;;;;;;;2.65;0.90;;;17.30;72.00;;;;;;5079882;28;20028;-84
2021/10/03 11:23:59;;;;;;;6.07;1.60;;;17.30;72.70;;;;;;5098353;28;20024;-91
2021/10/03 11:26:25;;;;;;;3.10;0.50;;;17.30;72.90;;;;;;5113279;28;20011;-84
2021/10/03 11:28:59;;;;;;;4.72;1.63;;;17.30;71.20;;;;;;5107143;28;20064;-88
2021/10/03 11:31:34;;;;;;;2.00;1.00;;;17.40;73.30;;;;;;5096132;28;20077;-89
2021/10/03 11:34:00;;;;;;;5.43;1.33;;;17.50;71.40;;;;;;5095690;28;20032;-83
2021/10/03 11:36:26;;;;;;;3.90;1.30;;;17.60;69.50;;;;;;5095645;28;20670;-88
2021/10/03 11:38:52;;;;;;;2.45;0.90;;;17.70;70.70;;;;;;5095082;28;20437;-84
2021/10/03 11:41:18;;;;;;;2.05;0.60;;;17.60;69.20;;;;;;5095531;28;20055;-84
2021/10/03 11:43:44;;;;;;;2.75;0.50;;;17.60;65.40;;;;;;5095574;28;20025;-84
2021/10/03 11:46:09;;;;;;;1.95;0.80;;;17.50;65.70;;;;;;5095482;28;20035;-87
2021/10/03 11:48:35;;;;;;;2.42;1.10;;;17.60;66.40;;;;;;5077245;28;20039;-88
2021/10/03 11:51:01;;;;;;;1.90;0.60;;;17.50;67.40;;;;;;5095876;28;20028;-86
2021/10/03 11:53:31;;;;;;;3.13;1.00;;;17.50;66.80;;;;;;5102941;28;20076;-87
2021/10/03 11:56:09;;;;;;;7.05;1.00;;;17.40;64.50;;;;;;5093210;28;20024;-88
2021/10/03 11:58:40;;;;;;;3.78;1.90;;;17.50;70.30;;;;;;5095451;28;20050;-86
2021/10/03 12:01:06;;;;;;;1.45;0.60;;;17.70;66.60;;;;;;5095794;28;20035;-89
2021/10/03 12:03:33;;;;;;;3.97;0.68;;;17.50;63.30;;;;;;5091118;28;20028;-87
2021/10/03 12:06:15;;;;;;;3.45;1.17;;;17.40;62.10;;;;;;5096025;28;20016;-89
2021/10/03 12:08:41;;;;;;;2.63;0.93;;;17.40;68.00;;;;;;5078446;28;20032;-91
2021/10/03 12:11:07;;;;;;;4.88;0.90;;;17.40;70.40;;;;;;5097630;28;20500;-91
2021/10/03 12:13:34;;;;;;;3.58;1.00;;;17.60;67.60;;;;;;5097343;28;20020;-88
2021/10/03 12:16:05;;;;;;;1.27;0.60;;;18.00;67.80;;;;;;5115838;28;20020;-81
2021/10/03 12:18:34;;;;;;;3.25;0.70;;;18.10;63.70;;;;;;5115739;28;20035;-82
2021/10/03 12:21:04;;;;;;;4.65;0.90;;;18.00;60.10;;;;;;5092683;28;20024;-86
2021/10/03 12:23:58;;;;;;;1.98;0.70;;;17.80;61.00;;;;;;5077261;28;20036;-89
2021/10/03 12:26:46;;;;;;;2.10;1.20;;;17.80;63.10;;;;;;5097681;28;20032;-78
2021/10/03 12:29:25;;;;;;;3.80;1.38;;;18.00;64.90;;;;;;5098845;28;20028;-87
2021/10/03 12:32:03;;;;;;;1.98;1.27;;;18.10;67.60;;;;;;5115497;28;20020;-87
2021/10/03 12:34:32;;;;;;;9.63;5.32;;;18.30;65.80;;;;;;5100650;28;20054;-75
2021/10/03 12:37:00;;;;;;;7.10;4.03;;;18.30;63.80;;;;;;5117971;28;20102;-77
2021/10/03 12:39:29;;;;;;;11.60;7.03;;;18.20;62.00;;;;;;5098455;28;20083;-78
2021/10/03 12:41:57;;;;;;;8.77;5.97;;;18.30;64.00;;;;;;5117003;28;20031;-79
2021/10/03 12:44:25;;;;;;;3.33;0.50;;;18.30;65.80;;;;;;5112128;28;20461;-82
2021/10/03 12:46:52;;;;;;;2.15;0.52;;;18.30;58.70;;;;;;5098556;28;20059;-83
2021/10/03 12:49:18;;;;;;;2.42;0.93;;;18.20;62.50;;;;;;5098529;28;20390;-82
2021/10/03 12:51:45;;;;;;;2.47;0.60;;;18.30;59.80;;;;;;5098391;28;20024;-82
2021/10/03 12:54:10;;;;;;;1.20;0.60;;;18.30;57.60;;;;;;5101916;28;20036;-81
2021/10/03 12:56:36;;;;;;;4.03;2.00;;;18.40;55.60;;;;;;5117230;28;20037;-86
2021/10/03 12:59:02;;;;;;;2.85;1.27;;;18.60;57.90;;;;;;5112614;28;20094;-81
2021/10/03 13:01:28;;;;;;;6.05;3.63;;;18.30;59.80;;;;;;5107160;28;20035;-85
2021/10/03 13:03:54;;;;;;;5.90;1.33;;;18.10;60.20;;;;;;5090425;28;20112;-87
2021/10/03 13:06:20;;;;;;;3.35;0.90;;;17.70;56.10;;;;;;5093296;28;20035;-84
2021/10/03 13:08:47;;;;;;;1.38;0.65;;;17.60;58.40;;;;;;5112048;28;20501;-86
2021/10/03 13:11:14;;;;;;;3.20;0.60;;;17.40;60.90;;;;;;5109898;28;20073;-87
2021/10/03 13:13:40;;;;;;;1.23;0.60;;;17.30;61.00;;;;;;5112472;28;20084;-87
2021/10/03 13:16:06;;;;;;;2.17;1.38;;;17.50;60.80;;;;;;5107725;28;20023;-86
2021/10/03 13:18:33;;;;;;;2.25;0.50;;;17.50;62.10;;;;;;5111945;28;20019;-83
2021/10/03 13:21:04;;;;;;;19.50;11.02;;;17.30;59.00;;;;;;5112300;28;20027;-84